Time;durP1;ratioP1;P1;durP2;ratioP2;P2;SDS_P1;SDS_P2;PMS_P1;PMS_P2;Temp;Humidity;BMP_temperature;BMP_pressure;BME280_temperature;BME280_humidity;BME280_pressure;Samples;Min_cycle;Max_cycle;Signal;HPM_P1;HPM_P2
2024/01/15 00:02:12;;;;;;;0.60;0.60;;;;;;;;;;4960412;28;20146;-87
2024/01/15 00:04:38;;;;;;;0.60;0.60;;;;;;;;;;4976390;28;20042;-87
2024/01/15 00:07:04;;;;;;;0.50;0.50;;;;;;;;;;4977043;28;20050;-86
2024/01/15 00:09:30;;;;;;;0.52;0.52;;;;;;;;;;4962636;28;20058;-86
2024/01/15 00:11:56;;;;;;;0.55;0.55;;;;;;;;;;4976981;28;20066;-87
2024/01/15 00:14:23;;;;;;;0.60;0.60;;;;;;;;;;4979635;28;20041;-87
2024/01/15 00:16:52;;;;;;;0.52;0.52;;;;;;;;;;4958990;28;20038;-87
2024/01/15 00:19:18;;;;;;;0.50;0.50;;;;;;;;;;4978528;28;20042;-87
2024/01/15 00:21:44;;;;;;;0.50;0.50;;;;;;;;;;4958017;28;20042;-87
2024/01/15 00:24:12;;;;;;;0.52;0.52;;;;;;;;;;4961819;28;20605;-87
2024/01/15 00:26:38;;;;;;;0.50;0.50;;;;;;;;;;4961236;28;20448;-87
2024/01/15 00:29:04;;;;;;;0.50;0.50;;;;;;;;;;4959972;28;20126;-87
2024/01/15 00:31:30;;;;;;;0.50;0.50;;;;;;;;;;4961315;28;20452;-87
2024/01/15 00:33:57;;;;;;;0.50;0.50;;;;;;;;;;4959949;28;20429;-87
2024/01/15 00:36:23;;;;;;;0.50;0.50;;;;;;;;;;4962344;28;20042;-87
2024/01/15 00:38:49;;;;;;;0.50;0.50;;;;;;;;;;4959318;28;20567;-87
2024/01/15 00:41:15;;;;;;;0.60;0.60;;;;;;;;;;4960932;28;20094;-87
2024/01/15 00:43:42;;;;;;;0.40;0.40;;;;;;;;;;4958303;28;20083;-87
2024/01/15 00:46:08;;;;;;;0.50;0.50;;;;;;;;;;4960661;28;20043;-87
2024/01/15 00:48:34;;;;;;;0.50;0.50;;;;;;;;;;4977871;28;20404;-87
2024/01/15 00:51:00;;;;;;;0.50;0.50;;;;;;;;;;4975499;28;20046;-87
2024/01/15 00:53:26;;;;;;;0.50;0.50;;;;;;;;;;4975113;28;20049;-87
2024/01/15 00:55:52;;;;;;;0.60;0.60;;;;;;;;;;4957856;28;20042;-87
2024/01/15 00:58:19;;;;;;;0.50;0.50;;;;;;;;;;4961961;28;20066;-87
2024/01/15 01:00:45;;;;;;;0.50;0.50;;;;;;;;;;4979309;28;20113;-87
2024/01/15 01:03:11;;;;;;;0.50;0.50;;;;;;;;;;4976657;28;20405;-87
2024/01/15 01:05:37;;;;;;;0.50;0.50;;;;;;;;;;4960778;28;20042;-87
2024/01/15 01:08:03;;;;;;;0.50;0.50;;;;;;;;;;4959888;28;20543;-86
2024/01/15 01:10:30;;;;;;;0.50;0.50;;;;;;;;;;4961370;28;20377;-86
2024/01/15 01:12:56;;;;;;;0.50;0.50;;;;;;;;;;4980067;28;20096;-87
2024/01/15 01:15:22;;;;;;;0.50;0.50;;;;;;;;;;4963563;28;20046;-86
2024/01/15 01:17:48;;;;;;;0.52;0.52;;;;;;;;;;4976518;28;20448;-87
2024/01/15 01:20:15;;;;;;;0.50;0.50;;;;;;;;;;4974715;28;20043;-87
2024/01/15 01:22:41;;;;;;;0.60;0.60;;;;;;;;;;4957715;28;20448;-87
2024/01/15 01:25:07;;;;;;;0.50;0.50;;;;;;;;;;4958340;28;20100;-87
2024/01/15 01:27:33;;;;;;;0.50;0.50;;;;;;;;;;4958701;28;20046;-87
2024/01/15 01:29:59;;;;;;;0.50;0.50;;;;;;;;;;4975286;28;20052;-87
2024/01/15 01:32:25;;;;;;;0.50;0.50;;;;;;;;;;4957984;28;20467;-87
2024/01/15 01:34:51;;;;;;;0.50;0.50;;;;;;;;;;4958334;28;20117;-87
2024/01/15 01:37:17;;;;;;;0.50;0.50;;;;;;;;;;4958267;28;20046;-87
2024/01/15 01:39:44;;;;;;;0.50;0.50;;;;;;;;;;4974734;28;20668;-87
2024/01/15 01:42:10;;;;;;;0.50;0.50;;;;;;;;;;4958102;28;20053;-87
2024/01/15 01:44:36;;;;;;;0.50;0.50;;;;;;;;;;4958491;28;20165;-87
2024/01/15 01:47:03;;;;;;;0.50;0.50;;;;;;;;;;4969849;28;20046;-88
2024/01/15 01:49:29;;;;;;;0.50;0.50;;;;;;;;;;4977515;28;20109;-88
2024/01/15 01:51:58;;;;;;;0.47;0.47;;;;;;;;;;4965805;28;20046;-87
2024/01/15 01:54:26;;;;;;;0.50;0.50;;;;;;;;;;4974325;28;20487;-87
2024/01/15 01:56:52;;;;;;;0.60;0.60;;;;;;;;;;4970223;28;20100;-88
2024/01/15 01:59:18;;;;;;;0.50;0.50;;;;;;;;;;4977887;28;20575;-88
2024/01/15 02:01:44;;;;;;;0.50;0.50;;;;;;;;;;4993894;28;20448;-88
2024/01/15 02:04:11;;;;;;;0.50;0.50;;;;;;;;;;4975483;28;20042;-87
2024/01/15 02:06:37;;;;;;;0.50;0.50;;;;;;;;;;4957818;28;20046;-88
2024/01/15 02:09:05;;;;;;;0.60;0.60;;;;;;;;;;4958127;28;20074;-88
2024/01/15 02:11:31;;;;;;;0.50;0.50;;;;;;;;;;4958089;28;20485;-88
2024/01/15 02:13:57;;;;;;;0.50;0.50;;;;;;;;;;4958236;28;20043;-87
2024/01/15 02:16:23;;;;;;;0.50;0.50;;;;;;;;;;4957781;28;20101;-87
2024/01/15 02:18:49;;;;;;;0.60;0.60;;;;;;;;;;4957901;28;20039;-87
2024/01/15 02:21:16;;;;;;;0.47;0.47;;;;;;;;;;4950208;28;20039;-88
2024/01/15 02:23:42;;;;;;;0.50;0.50;;;;;;;;;;4954857;28;20421;-87
2024/01/15 02:26:08;;;;;;;0.50;0.50;;;;;;;;;;4955384;28;20043;-87
2024/01/15 02:28:34;;;;;;;0.50;0.50;;;;;;;;;;4956304;28;20046;-86
2024/01/15 02:31:00;;;;;;;0.50;0.50;;;;;;;;;;4971517;28;20336;-87
2024/01/15 02:33:26;;;;;;;0.50;0.50;;;;;;;;;;4972798;28;20390;-87
2024/01/15 02:35:52;;;;;;;0.50;0.50;;;;;;;;;;4957041;28;20030;-87
2024/01/15 02:38:18;;;;;;;0.40;0.40;;;;;;;;;;4973111;28;20387;-87
2024/01/15 02:40:45;;;;;;;0.50;0.50;;;;;;;;;;4957282;28;20047;-87
2024/01/15 02:43:13;;;;;;;0.60;0.60;;;;;;;;;;4956973;28;20101;-87
2024/01/15 02:45:39;;;;;;;0.60;0.60;;;;;;;;;;4957245;28;20078;-88
2024/01/15 02:48:05;;;;;;;0.50;0.50;;;;;;;;;;4957251;28;20478;-87
2024/01/15 02:50:31;;;;;;;0.50;0.50;;;;;;;;;;4973041;28;20097;-87
2024/01/15 02:52:57;;;;;;;0.50;0.50;;;;;;;;;;4964665;28;20045;-88
2024/01/15 02:55:23;;;;;;;0.60;0.60;;;;;;;;;;4976381;28;20077;-87
2024/01/15 02:57:49;;;;;;;0.40;0.40;;;;;;;;;;4964696;28;20042;-87
2024/01/15 03:00:15;;;;;;;0.50;0.50;;;;;;;;;;4956883;28;20515;-87
2024/01/15 03:02:44;;;;;;;0.50;0.50;;;;;;;;;;4956521;28;20051;-87
2024/01/15 03:05:10;;;;;;;0.50;0.50;;;;;;;;;;4956685;28;20039;-87
2024/01/15 03:07:37;;;;;;;0.50;0.50;;;;;;;;;;4956798;28;20133;-88
2024/01/15 03:10:03;;;;;;;0.50;0.50;;;;;;;;;;4956773;28;20473;-88
2024/01/15 03:12:29;;;;;;;0.40;0.40;;;;;;;;;;4956572;28;20042;-87
2024/01/15 03:14:55;;;;;;;0.50;0.50;;;;;;;;;;4956699;28;20042;-87
2024/01/15 03:17:21;;;;;;;0.50;0.50;;;;;;;;;;4956479;28;20050;-87
2024/01/15 03:19:47;;;;;;;0.50;0.50;;;;;;;;;;4956461;28;20482;-87
2024/01/15 03:22:13;;;;;;;0.50;0.50;;;;;;;;;;4956490;28;20197;-87
2024/01/15 03:24:39;;;;;;;0.50;0.50;;;;;;;;;;4956375;28;20049;-87
2024/01/15 03:27:05;;;;;;;0.60;0.60;;;;;;;;;;4956207;28;20133;-87
2024/01/15 03:29:31;;;;;;;0.50;0.50;;;;;;;;;;4956342;28;20074;-88
2024/01/15 03:31:57;;;;;;;0.50;0.50;;;;;;;;;;4955917;28;20049;-87
2024/01/15 03:34:23;;;;;;;0.50;0.50;;;;;;;;;;4956427;28;20513;-87
2024/01/15 03:36:49;;;;;;;0.50;0.50;;;;;;;;;;4955703;28;20043;-87
2024/01/15 03:39:15;;;;;;;0.60;0.60;;;;;;;;;;4956272;28;20046;-87
2024/01/15 03:41:41;;;;;;;0.50;0.50;;;;;;;;;;4955970;28;20049;-87
2024/01/15 03:44:07;;;;;;;0.50;0.50;;;;;;;;;;4955644;28;20101;-87
2024/01/15 03:46:33;;;;;;;0.40;0.40;;;;;;;;;;4958166;28;20042;-87
2024/01/15 03:48:59;;;;;;;0.50;0.50;;;;;;;;;;4955913;28;20133;-86
2024/01/15 03:51:25;;;;;;;0.50;0.50;;;;;;;;;;4955131;28;20035;-86
2024/01/15 03:53:51;;;;;;;0.50;0.50;;;;;;;;;;4970493;28;20478;-87
2024/01/15 03:56:17;;;;;;;0.50;0.50;;;;;;;;;;4954421;28;20133;-86
2024/01/15 03:58:43;;;;;;;0.50;0.50;;;;;;;;;;4954559;28;20696;-87
2024/01/15 04:01:12;;;;;;;0.50;0.50;;;;;;;;;;4970847;28;20042;-87
2024/01/15 04:03:38;;;;;;;0.40;0.40;;;;;;;;;;4969760;28;20034;-87
2024/01/15 04:06:05;;;;;;;0.50;0.50;;;;;;;;;;4955654;28;20517;-87
2024/01/15 04:08:31;;;;;;;0.50;0.50;;;;;;;;;;4955898;28;20118;-87
2024/01/15 04:10:57;;;;;;;0.50;0.50;;;;;;;;;;4955614;28;20062;-86
2024/01/15 04:13:23;;;;;;;0.50;0.50;;;;;;;;;;4963323;28;20065;-86
2024/01/15 04:15:49;;;;;;;0.50;0.50;;;;;;;;;;4971370;28;20047;-87
2024/01/15 04:18:16;;;;;;;0.40;0.40;;;;;;;;;;4955717;28;20548;-86
2024/01/15 04:20:43;;;;;;;0.50;0.50;;;;;;;;;;4955601;28;20101;-87
2024/01/15 04:23:09;;;;;;;0.50;0.50;;;;;;;;;;4955360;28;20043;-87
2024/01/15 04:25:35;;;;;;;0.45;0.45;;;;;;;;;;4955433;28;20412;-87
2024/01/15 04:28:01;;;;;;;0.60;0.60;;;;;;;;;;4955654;28;20042;-87
2024/01/15 04:30:27;;;;;;;0.52;0.52;;;;;;;;;;4971725;28;20535;-87
2024/01/15 04:32:53;;;;;;;0.60;0.60;;;;;;;;;;4955230;28;20047;-87
2024/01/15 04:35:19;;;;;;;0.50;0.50;;;;;;;;;;4955182;28;20038;-87
2024/01/15 04:37:45;;;;;;;0.40;0.40;;;;;;;;;;4955623;28;20051;-87
2024/01/15 04:40:11;;;;;;;0.50;0.50;;;;;;;;;;4971507;28;20043;-87
2024/01/15 04:42:37;;;;;;;0.50;0.50;;;;;;;;;;4955284;28;20042;-87
2024/01/15 04:45:04;;;;;;;0.50;0.50;;;;;;;;;;4955205;28;20482;-87
2024/01/15 04:47:30;;;;;;;0.50;0.50;;;;;;;;;;4955269;28;20042;-87
2024/01/15 04:49:56;;;;;;;0.50;0.50;;;;;;;;;;4974996;28;20080;-87
2024/01/15 04:52:22;;;;;;;0.50;0.50;;;;;;;;;;4975153;28;20046;-87
2024/01/15 04:54:48;;;;;;;0.50;0.50;;;;;;;;;;4959307;28;20057;-87
2024/01/15 04:57:14;;;;;;;0.50;0.50;;;;;;;;;;4958530;28;20206;-87
2024/01/15 04:59:39;;;;;;;0.55;0.55;;;;;;;;;;4958864;28;20405;-86
2024/01/15 05:02:05;;;;;;;0.50;0.50;;;;;;;;;;4974166;28;20066;-87
2024/01/15 05:04:32;;;;;;;0.50;0.50;;;;;;;;;;4950078;28;20039;-86
2024/01/15 05:06:58;;;;;;;0.50;0.50;;;;;;;;;;4964535;28;20051;-87
2024/01/15 05:09:24;;;;;;;0.50;0.50;;;;;;;;;;4951301;28;20043;-87
2024/01/15 05:11:50;;;;;;;0.40;0.40;;;;;;;;;;4947761;28;20039;-87
2024/01/15 05:14:16;;;;;;;0.40;0.40;;;;;;;;;;4949880;28;20034;-87
2024/01/15 05:16:52;;;;;;;0.60;0.60;;;;;;;;;;4947398;28;20046;-87
2024/01/15 05:19:18;;;;;;;0.50;0.50;;;;;;;;;;4943443;28;20113;-86
2024/01/15 05:21:44;;;;;;;0.50;0.50;;;;;;;;;;4950240;28;20047;-87
2024/01/15 05:24:10;;;;;;;0.50;0.50;;;;;;;;;;4946919;28;20137;-87
2024/01/15 05:26:37;;;;;;;0.50;0.50;;;;;;;;;;4949468;28;20046;-87
2024/01/15 05:29:03;;;;;;;0.50;0.50;;;;;;;;;;4947334;28;20046;-87
2024/01/15 05:31:29;;;;;;;0.50;0.50;;;;;;;;;;4949307;28;20532;-87
2024/01/15 05:33:55;;;;;;;0.50;0.50;;;;;;;;;;4948080;28;20039;-87
2024/01/15 05:36:21;;;;;;;0.50;0.50;;;;;;;;;;4948037;28;20049;-87
2024/01/15 05:38:48;;;;;;;0.60;0.60;;;;;;;;;;4965947;28;20074;-87
2024/01/15 05:41:14;;;;;;;0.50;0.50;;;;;;;;;;4962258;28;20051;-87
2024/01/15 05:43:40;;;;;;;0.50;0.50;;;;;;;;;;4950296;28;20548;-87
2024/01/15 05:46:06;;;;;;;0.50;0.50;;;;;;;;;;4950508;28;20333;-87
2024/01/15 05:48:32;;;;;;;0.50;0.50;;;;;;;;;;4950797;28;20369;-87
2024/01/15 05:50:58;;;;;;;0.50;0.50;;;;;;;;;;4949991;28;20044;-87
2024/01/15 05:53:24;;;;;;;0.50;0.50;;;;;;;;;;4947872;28;20130;-87
2024/01/15 05:55:50;;;;;;;0.50;0.50;;;;;;;;;;4948449;28;20134;-86
2024/01/15 05:58:16;;;;;;;0.50;0.50;;;;;;;;;;4964910;28;20039;-86
2024/01/15 06:00:42;;;;;;;0.50;0.50;;;;;;;;;;4945718;28;20568;-87
2024/01/15 06:03:08;;;;;;;0.50;0.50;;;;;;;;;;4945944;29;20410;-87
2024/01/15 06:05:34;;;;;;;0.50;0.50;;;;;;;;;;4948658;28;20129;-87
2024/01/15 06:08:00;;;;;;;0.50;0.50;;;;;;;;;;4962904;28;20043;-87
2024/01/15 06:10:26;;;;;;;0.50;0.50;;;;;;;;;;4964217;28;20031;-86
2024/01/15 06:12:52;;;;;;;0.40;0.40;;;;;;;;;;4947408;28;20039;-87
2024/01/15 06:15:18;;;;;;;0.57;0.57;;;;;;;;;;4947189;28;20046;-87
2024/01/15 06:17:44;;;;;;;0.55;0.55;;;;;;;;;;4948645;28;20544;-87
2024/01/15 06:20:10;;;;;;;0.50;0.50;;;;;;;;;;4949855;28;20039;-86
2024/01/15 06:22:38;;;;;;;0.50;0.50;;;;;;;;;;4949346;28;20057;-87
2024/01/15 06:25:05;;;;;;;0.50;0.50;;;;;;;;;;4949756;28;20035;-87
2024/01/15 06:27:31;;;;;;;0.50;0.50;;;;;;;;;;4945874;28;20039;-86
2024/01/15 06:29:57;;;;;;;0.50;0.50;;;;;;;;;;4950112;28;20053;-87
2024/01/15 06:32:23;;;;;;;0.50;0.50;;;;;;;;;;4963747;28;20035;-87
2024/01/15 06:34:48;;;;;;;0.50;0.50;;;;;;;;;;4963661;28;20081;-87
2024/01/15 06:37:15;;;;;;;0.50;0.50;;;;;;;;;;4946457;28;20039;-87
2024/01/15 06:39:40;;;;;;;0.60;0.60;;;;;;;;;;4952760;28;20489;-87
2024/01/15 06:42:07;;;;;;;0.50;0.50;;;;;;;;;;4960850;28;20122;-87
2024/01/15 06:44:33;;;;;;;0.50;0.50;;;;;;;;;;4948690;28;20457;-87
2024/01/15 06:47:02;;;;;;;0.50;0.50;;;;;;;;;;4967345;28;20043;-86
2024/01/15 06:49:29;;;;;;;0.50;0.50;;;;;;;;;;4964114;28;20054;-87
2024/01/15 06:51:55;;;;;;;0.50;0.50;;;;;;;;;;4962146;28;20043;-87
2024/01/15 06:54:21;;;;;;;0.50;0.50;;;;;;;;;;4947035;28;20043;-86
2024/01/15 06:56:47;;;;;;;0.50;0.50;;;;;;;;;;4948439;28;20038;-86
2024/01/15 06:59:13;;;;;;;0.50;0.50;;;;;;;;;;4948237;28;20046;-87
2024/01/15 07:01:39;;;;;;;0.50;0.50;;;;;;;;;;4948092;28;20455;-86
2024/01/15 07:04:05;;;;;;;0.50;0.50;;;;;;;;;;4944858;28;20043;-86
2024/01/15 07:06:31;;;;;;;0.50;0.50;;;;;;;;;;4948091;28;20038;-86
2024/01/15 07:08:57;;;;;;;0.50;0.50;;;;;;;;;;4945559;28;20043;-87
2024/01/15 07:11:23;;;;;;;0.50;0.50;;;;;;;;;;4946521;28;20039;-87
2024/01/15 07:13:49;;;;;;;0.50;0.50;;;;;;;;;;4943913;28;20417;-87
2024/01/15 07:16:18;;;;;;;0.50;0.50;;;;;;;;;;4960327;28;20074;-86
2024/01/15 07:18:44;;;;;;;0.50;0.50;;;;;;;;;;4946936;28;20031;-87
2024/01/15 07:21:10;;;;;;;0.50;0.50;;;;;;;;;;4945342;28;20043;-86
2024/01/15 07:23:36;;;;;;;0.50;0.50;;;;;;;;;;4947566;28;20034;-86
2024/01/15 07:26:02;;;;;;;0.50;0.50;;;;;;;;;;4944766;28;20520;-86
2024/01/15 07:28:29;;;;;;;0.50;0.50;;;;;;;;;;4964065;28;20035;-87
2024/01/15 07:30:55;;;;;;;0.47;0.47;;;;;;;;;;4945322;28;20051;-87
2024/01/15 07:33:21;;;;;;;0.50;0.50;;;;;;;;;;4946670;28;20042;-87
2024/01/15 07:35:47;;;;;;;0.50;0.50;;;;;;;;;;4950239;28;20121;-87
2024/01/15 07:38:13;;;;;;;0.50;0.50;;;;;;;;;;4945442;28;20052;-86
2024/01/15 07:40:39;;;;;;;0.50;0.50;;;;;;;;;;4963079;28;20077;-87
2024/01/15 07:43:05;;;;;;;0.60;0.60;;;;;;;;;;4944792;28;20034;-86
2024/01/15 07:45:31;;;;;;;0.60;0.60;;;;;;;;;;4940457;29;20046;-86
2024/01/15 07:47:57;;;;;;;0.50;0.50;;;;;;;;;;4949221;28;20035;-86
2024/01/15 07:50:23;;;;;;;0.50;0.50;;;;;;;;;;4968163;28;20045;-86
2024/01/15 07:52:49;;;;;;;0.50;0.50;;;;;;;;;;4948709;28;20046;-84
2024/01/15 07:55:15;;;;;;;0.50;0.50;;;;;;;;;;4948026;28;20568;-82
2024/01/15 07:57:41;;;;;;;0.50;0.50;;;;;;;;;;4946346;28;20069;-85
2024/01/15 08:00:09;;;;;;;0.50;0.50;;;;;;;;;;4947777;28;20035;-84
2024/01/15 08:02:34;;;;;;;0.50;0.50;;;;;;;;;;4947034;28;20044;-84
2024/01/15 08:05:00;;;;;;;0.50;0.50;;;;;;;;;;4949985;28;20497;-85
2024/01/15 08:07:27;;;;;;;0.57;0.57;;;;;;;;;;4950991;28;20042;-85
2024/01/15 08:09:53;;;;;;;0.50;0.50;;;;;;;;;;4963450;28;20054;-85
2024/01/15 08:12:19;;;;;;;0.47;0.47;;;;;;;;;;4961763;28;20031;-85
2024/01/15 08:14:45;;;;;;;0.50;0.50;;;;;;;;;;4949769;28;20135;-85
2024/01/15 08:17:11;;;;;;;0.50;0.50;;;;;;;;;;4947068;28;20043;-85
2024/01/15 08:19:38;;;;;;;0.50;0.50;;;;;;;;;;4945680;28;20516;-85
2024/01/15 08:22:06;;;;;;;0.50;0.50;;;;;;;;;;4947168;28;20051;-85
2024/01/15 08:24:32;;;;;;;0.50;0.50;;;;;;;;;;4948921;28;20130;-84
2024/01/15 08:26:58;;;;;;;0.50;0.50;;;;;;;;;;4947762;28;20118;-86
2024/01/15 08:29:24;;;;;;;0.40;0.40;;;;;;;;;;4949604;28;20119;-85
2024/01/15 08:31:50;;;;;;;0.50;0.50;;;;;;;;;;4955041;28;20042;-85
2024/01/15 08:34:17;;;;;;;0.50;0.50;;;;;;;;;;4961646;28;20031;-86
2024/01/15 08:36:43;;;;;;;0.40;0.40;;;;;;;;;;4982619;28;20038;-85
2024/01/15 08:39:09;;;;;;;0.50;0.50;;;;;;;;;;4969255;28;20105;-84
2024/01/15 08:41:35;;;;;;;0.50;0.50;;;;;;;;;;4958465;28;20043;-85
2024/01/15 08:44:01;;;;;;;0.50;0.50;;;;;;;;;;4951767;28;20472;-85
2024/01/15 08:46:28;;;;;;;0.47;0.47;;;;;;;;;;4959689;28;20126;-87
2024/01/15 08:48:54;;;;;;;0.50;0.50;;;;;;;;;;4957898;28;20129;-85
2024/01/15 08:51:20;;;;;;;0.50;0.50;;;;;;;;;;4957010;28;20046;-87
2024/01/15 08:53:46;;;;;;;0.50;0.50;;;;;;;;;;4951702;28;20404;-85
2024/01/15 08:56:12;;;;;;;0.47;0.47;;;;;;;;;;4952465;28;20121;-86
2024/01/15 08:58:38;;;;;;;0.43;0.43;;;;;;;;;;4969003;28;20043;-87
2024/01/15 09:01:04;;;;;;;0.50;0.50;;;;;;;;;;4957085;28;20042;-85
2024/01/15 09:03:30;;;;;;;0.60;0.60;;;;;;;;;;4959436;28;20038;-86
2024/01/15 09:05:56;;;;;;;0.40;0.40;;;;;;;;;;4953743;28;20035;-88
2024/01/15 09:08:22;;;;;;;0.50;0.50;;;;;;;;;;4959691;28;20035;-87
2024/01/15 09:10:48;;;;;;;0.50;0.50;;;;;;;;;;4958283;28;20038;-85
2024/01/15 09:13:14;;;;;;;0.45;0.45;;;;;;;;;;4959478;28;20140;-87
2024/01/15 09:15:40;;;;;;;0.60;0.60;;;;;;;;;;4956227;28;20150;-86
2024/01/15 09:18:06;;;;;;;0.60;0.60;;;;;;;;;;4955064;28;20101;-89
2024/01/15 09:20:32;;;;;;;0.50;0.50;;;;;;;;;;4954060;28;20059;-86
2024/01/15 09:22:58;;;;;;;0.40;0.40;;;;;;;;;;4949624;28;20065;-86
2024/01/15 09:25:24;;;;;;;0.55;0.55;;;;;;;;;;4953172;28;20048;-91
2024/01/15 09:27:50;;;;;;;0.50;0.50;;;;;;;;;;4965419;28;20043;-82
2024/01/15 09:30:16;;;;;;;0.50;0.50;;;;;;;;;;4945943;28;20129;-84
2024/01/15 09:32:42;;;;;;;11.38;1.77;;;;;;;;;;4952212;28;20061;-83
2024/01/15 09:35:09;;;;;;;0.50;0.50;;;;;;;;;;4947473;28;20052;-84
2024/01/15 09:37:35;;;;;;;0.40;0.40;;;;;;;;;;4948490;28;20042;-86
2024/01/15 09:40:02;;;;;;;0.50;0.50;;;;;;;;;;4947518;28;20058;-84
2024/01/15 09:42:29;;;;;;;0.50;0.50;;;;;;;;;;4949015;28;20077;-84
2024/01/15 09:44:55;;;;;;;0.40;0.40;;;;;;;;;;4958661;28;20040;-87
2024/01/15 09:47:21;;;;;;;0.40;0.40;;;;;;;;;;4970738;28;20085;-86
2024/01/15 09:49:48;;;;;;;0.57;0.57;;;;;;;;;;4950397;28;20039;-86
2024/01/15 09:52:15;;;;;;;0.50;0.50;;;;;;;;;;4953909;28;21007;-85
2024/01/15 09:54:43;;;;;;;0.50;0.50;;;;;;;;;;4952956;28;20117;-87
2024/01/15 09:57:09;;;;;;;0.40;0.40;;;;;;;;;;4953547;28;20053;-88
2024/01/15 09:59:36;;;;;;;0.60;0.60;;;;;;;;;;4955699;28;20039;-87
2024/01/15 10:02:03;;;;;;;0.40;0.40;;;;;;;;;;4948770;28;20054;-86
2024/01/15 10:04:29;;;;;;;0.50;0.50;;;;;;;;;;4951821;28;20034;-86
2024/01/15 10:06:57;;;;;;;0.50;0.50;;;;;;;;;;4950294;29;20050;-86
2024/01/15 10:09:23;;;;;;;0.50;0.50;;;;;;;;;;4951512;28;20047;-86
2024/01/15 10:11:49;;;;;;;0.60;0.60;;;;;;;;;;4965156;28;20059;-88
2024/01/15 10:14:15;;;;;;;0.50;0.50;;;;;;;;;;4948079;28;20046;-84
2024/01/15 10:16:41;;;;;;;0.50;0.50;;;;;;;;;;4978014;28;20038;-86
2024/01/15 10:19:08;;;;;;;0.50;0.50;;;;;;;;;;4961237;28;20049;-86
2024/01/15 10:21:37;;;;;;;0.50;0.50;;;;;;;;;;4957430;28;20042;-86
2024/01/15 10:24:04;;;;;;;0.60;0.60;;;;;;;;;;4956563;28;20091;-85
2024/01/15 10:26:30;;;;;;;0.50;0.50;;;;;;;;;;4955153;28;20047;-86
2024/01/15 10:28:56;;;;;;;0.50;0.50;;;;;;;;;;4954699;28;20043;-86
2024/01/15 10:31:22;;;;;;;0.50;0.50;;;;;;;;;;4973063;28;20038;-86
2024/01/15 10:33:49;;;;;;;0.50;0.50;;;;;;;;;;4972007;28;20034;-86
2024/01/15 10:36:16;;;;;;;0.40;0.40;;;;;;;;;;4973790;28;20066;-87
2024/01/15 10:38:43;;;;;;;0.40;0.40;;;;;;;;;;4956227;28;20042;-87
2024/01/15 10:41:09;;;;;;;0.45;0.45;;;;;;;;;;4954216;28;20039;-86
2024/01/15 10:43:35;;;;;;;0.43;0.43;;;;;;;;;;4955866;28;20122;-84
2024/01/15 10:46:01;;;;;;;0.50;0.50;;;;;;;;;;4951831;28;20118;-84
2024/01/15 10:48:30;;;;;;;0.50;0.50;;;;;;;;;;4955508;28;20039;-85
2024/01/15 10:50:56;;;;;;;0.50;0.50;;;;;;;;;;4966967;28;20070;-85
2024/01/15 10:53:24;;;;;;;0.50;0.50;;;;;;;;;;4950607;28;20035;-87
2024/01/15 10:55:51;;;;;;;0.50;0.50;;;;;;;;;;4955067;28;20138;-87
2024/01/15 10:58:18;;;;;;;0.50;0.50;;;;;;;;;;4948133;28;20544;-87
2024/01/15 11:00:44;;;;;;;0.40;0.40;;;;;;;;;;4953879;28;20077;-91
2024/01/15 11:03:10;;;;;;;0.50;0.50;;;;;;;;;;4948545;28;20042;-86
2024/01/15 11:05:42;;;;;;;0.50;0.50;;;;;;;;;;4944528;28;20501;-86
2024/01/15 11:08:09;;;;;;;0.50;0.50;;;;;;;;;;4946709;28;20047;-86
2024/01/15 11:10:39;;;;;;;0.50;0.50;;;;;;;;;;4946888;28;20039;-86
2024/01/15 11:13:05;;;;;;;0.47;0.47;;;;;;;;;;4955656;28;20035;-88
2024/01/15 11:15:31;;;;;;;0.50;0.50;;;;;;;;;;4950425;28;20047;-87
2024/01/15 11:18:01;;;;;;;0.50;0.50;;;;;;;;;;4947730;28;20034;-85
2024/01/15 11:20:27;;;;;;;0.50;0.50;;;;;;;;;;4945934;28;20044;-84
2024/01/15 11:22:53;;;;;;;0.50;0.50;;;;;;;;;;4949507;28;20042;-84
2024/01/15 11:25:20;;;;;;;0.60;0.60;;;;;;;;;;4947327;28;20046;-86
2024/01/15 11:27:54;;;;;;;0.60;0.60;;;;;;;;;;4947926;28;20042;-86
2024/01/15 11:30:25;;;;;;;0.52;0.52;;;;;;;;;;4950501;28;20084;-86
2024/01/15 11:32:51;;;;;;;0.60;0.60;;;;;;;;;;4964579;28;20422;-86
2024/01/15 11:35:18;;;;;;;0.50;0.50;;;;;;;;;;4947621;28;20038;-85
2024/01/15 11:37:51;;;;;;;2.75;2.22;;;;;;;;;;4969900;28;20497;-85
2024/01/15 11:40:20;;;;;;;0.50;0.50;;;;;;;;;;4951808;28;20046;-85
2024/01/15 11:42:47;;;;;;;0.60;0.60;;;;;;;;;;4959895;28;20046;-86
2024/01/15 11:45:13;;;;;;;0.50;0.50;;;;;;;;;;4947519;28;20182;-85
2024/01/15 11:47:39;;;;;;;0.50;0.50;;;;;;;;;;4944884;28;20552;-86
2024/01/15 11:50:06;;;;;;;0.50;0.50;;;;;;;;;;4962355;28;20135;-86
2024/01/15 11:52:36;;;;;;;0.50;0.50;;;;;;;;;;4961629;28;20064;-86
2024/01/15 11:55:03;;;;;;;0.50;0.50;;;;;;;;;;4961713;28;20064;-86
2024/01/15 11:57:43;;;;;;;0.50;0.50;;;;;;;;;;4945748;28;20557;-86
2024/01/15 12:00:10;;;;;;;0.50;0.50;;;;;;;;;;4962775;28;20047;-86
2024/01/15 12:02:36;;;;;;;0.50;0.50;;;;;;;;;;4951193;28;20490;-86
2024/01/15 12:05:02;;;;;;;0.40;0.40;;;;;;;;;;4945574;28;20049;-83
2024/01/15 12:07:28;;;;;;;0.50;0.50;;;;;;;;;;4956758;28;20047;-87
2024/01/15 12:09:55;;;;;;;0.50;0.50;;;;;;;;;;4962841;28;20039;-86
2024/01/15 12:12:25;;;;;;;0.50;0.50;;;;;;;;;;4949756;28;20497;-85
2024/01/15 12:14:51;;;;;;;0.50;0.50;;;;;;;;;;4942692;28;20470;-86
2024/01/15 12:17:17;;;;;;;0.40;0.40;;;;;;;;;;4946008;28;20043;-85
2024/01/15 12:19:44;;;;;;;0.50;0.50;;;;;;;;;;4961822;28;20050;-86
2024/01/15 12:22:10;;;;;;;0.50;0.50;;;;;;;;;;4945038;28;20042;-86
2024/01/15 12:24:36;;;;;;;0.43;0.43;;;;;;;;;;4943997;28;20125;-85
2024/01/15 12:27:02;;;;;;;0.40;0.40;;;;;;;;;;4943900;28;20079;-85
2024/01/15 12:29:28;;;;;;;0.50;0.50;;;;;;;;;;4958063;28;20039;-85
2024/01/15 12:31:55;;;;;;;0.40;0.40;;;;;;;;;;4944751;29;20552;-85
2024/01/15 12:34:21;;;;;;;0.47;0.47;;;;;;;;;;4966118;28;20081;-85
2024/01/15 12:36:47;;;;;;;0.50;0.50;;;;;;;;;;4948427;28;20031;-85
2024/01/15 12:39:13;;;;;;;0.50;0.50;;;;;;;;;;4947536;28;20042;-84
2024/01/15 12:41:39;;;;;;;0.50;0.50;;;;;;;;;;4953202;28;20066;-87
2024/01/15 12:44:06;;;;;;;0.50;0.50;;;;;;;;;;4945044;28;20417;-87
2024/01/15 12:46:32;;;;;;;0.50;0.50;;;;;;;;;;4938657;28;20506;-86
2024/01/15 12:48:58;;;;;;;0.50;0.50;;;;;;;;;;4962160;28;20043;-87
2024/01/15 12:51:27;;;;;;;0.47;0.47;;;;;;;;;;4946368;28;20383;-88
2024/01/15 12:53:53;;;;;;;0.50;0.50;;;;;;;;;;4943264;28;20050;-87
2024/01/15 12:56:19;;;;;;;0.50;0.50;;;;;;;;;;4961371;28;20043;-84
2024/01/15 12:58:45;;;;;;;0.50;0.50;;;;;;;;;;4962529;28;20047;-85
2024/01/15 13:01:11;;;;;;;0.50;0.50;;;;;;;;;;4945968;28;20040;-85
2024/01/15 13:03:37;;;;;;;0.50;0.50;;;;;;;;;;4944239;28;20569;-85
2024/01/15 13:06:03;;;;;;;0.50;0.50;;;;;;;;;;4945317;28;20121;-85
2024/01/15 13:08:29;;;;;;;0.45;0.45;;;;;;;;;;4944107;28;20509;-84
2024/01/15 13:10:57;;;;;;;0.50;0.50;;;;;;;;;;4965916;28;20043;-86
2024/01/15 13:13:23;;;;;;;0.43;0.43;;;;;;;;;;4944208;28;20117;-86
2024/01/15 13:15:49;;;;;;;0.40;0.40;;;;;;;;;;4953318;28;20069;-81
2024/01/15 13:18:15;;;;;;;0.50;0.50;;;;;;;;;;4964959;28;20045;-84
2024/01/15 13:20:42;;;;;;;0.50;0.50;;;;;;;;;;4961239;28;20050;-88
2024/01/15 13:23:09;;;;;;;0.50;0.50;;;;;;;;;;4962561;28;20043;-81
2024/01/15 13:25:37;;;;;;;0.50;0.50;;;;;;;;;;4966775;28;20055;-81
2024/01/15 13:28:04;;;;;;;0.50;0.50;;;;;;;;;;4955514;28;20046;-81
2024/01/15 13:30:31;;;;;;;0.50;0.50;;;;;;;;;;4954022;28;20043;-82
2024/01/15 13:32:58;;;;;;;0.50;0.50;;;;;;;;;;4970576;28;20074;-81
2024/01/15 13:35:24;;;;;;;0.50;0.50;;;;;;;;;;4958065;28;20461;-81
2024/01/15 13:37:50;;;;;;;0.50;0.50;;;;;;;;;;4955800;28;20060;-81
2024/01/15 13:40:19;;;;;;;0.50;0.50;;;;;;;;;;4967895;28;20461;-81
2024/01/15 13:42:47;;;;;;;0.50;0.50;;;;;;;;;;4950720;28;20449;-82
2024/01/15 13:45:15;;;;;;;0.50;0.50;;;;;;;;;;4957529;28;20046;-83
2024/01/15 13:47:43;;;;;;;0.50;0.50;;;;;;;;;;4955572;28;20397;-81
2024/01/15 13:50:09;;;;;;;0.50;0.50;;;;;;;;;;4956604;28;20117;-82
2024/01/15 13:52:36;;;;;;;0.50;0.50;;;;;;;;;;4957339;28;20650;-81
2024/01/15 13:55:02;;;;;;;0.45;0.45;;;;;;;;;;4956134;28;20043;-81
2024/01/15 13:57:28;;;;;;;0.43;0.43;;;;;;;;;;4956235;28;20497;-81
2024/01/15 13:59:54;;;;;;;0.50;0.50;;;;;;;;;;4956937;28;20137;-82
2024/01/15 14:02:20;;;;;;;0.50;0.50;;;;;;;;;;4956674;28;20043;-81
2024/01/15 14:04:47;;;;;;;0.50;0.50;;;;;;;;;;4972846;28;20065;-81
2024/01/15 14:07:13;;;;;;;0.50;0.50;;;;;;;;;;4956445;28;20050;-82
2024/01/15 14:09:39;;;;;;;0.50;0.50;;;;;;;;;;4956758;28;20411;-82
2024/01/15 14:12:06;;;;;;;0.50;0.50;;;;;;;;;;4956464;28;20038;-82
2024/01/15 14:14:33;;;;;;;0.50;0.50;;;;;;;;;;4953972;28;20041;-82
2024/01/15 14:16:59;;;;;;;0.50;0.50;;;;;;;;;;4956727;28;20415;-82
2024/01/15 14:19:24;;;;;;;0.50;0.50;;;;;;;;;;4956703;28;20042;-82
2024/01/15 14:21:50;;;;;;;0.60;0.60;;;;;;;;;;4972047;28;20535;-81
2024/01/15 14:24:17;;;;;;;0.43;0.43;;;;;;;;;;4956368;28;20401;-82
2024/01/15 14:26:43;;;;;;;0.50;0.50;;;;;;;;;;4956460;28;20128;-82
2024/01/15 14:29:09;;;;;;;0.50;0.50;;;;;;;;;;4972755;28;20044;-82
2024/01/15 14:31:35;;;;;;;0.60;0.60;;;;;;;;;;4956491;28;20039;-82
2024/01/15 14:34:02;;;;;;;0.50;0.50;;;;;;;;;;4944337;28;20042;-82
2024/01/15 14:36:30;;;;;;;0.50;0.50;;;;;;;;;;4963347;28;20141;-82
2024/01/15 14:38:59;;;;;;;0.50;0.50;;;;;;;;;;4953868;28;20062;-82